sensor_id;sensor_type;location;lat;lon;timestamp;temperature;humidity
20985;DHT22;10651;47.552;7.606;2022-12-18T06:21:29;-2.50;99.90
20985;DHT22;10651;47.552;7.606;2022-12-18T06:23:55;-2.50;99.90
20985;DHT22;10651;47.552;7.606;2022-12-18T06:26:24;-2.60;99.90
20985;DHT22;10651;47.552;7.606;2022-12-18T06:28:50;-2.60;99.90
20985;DHT22;10651;47.552;7.606;2022-12-18T06:31:16;-2.60;99.90
20985;DHT22;10651;47.552;7.606;2022-12-18T06:33:42;-2.60;99.90
20985;DHT22;10651;47.552;7.606;2022-12-18T06:36:11;-2.70;99.90
20985;DHT22;10651;47.552;7.606;2022-12-18T06:38:39;-2.70;99.90
20985;DHT22;10651;47.552;7.606;2022-12-18T06:41:13;-2.70;99.90
20985;DHT22;10651;47.552;7.606;2022-12-18T06:43:39;-2.80;99.90
20985;DHT22;10651;47.552;7.606;2022-12-18T06:46:05;-2.80;99.90
20985;DHT22;10651;47.552;7.606;2022-12-18T06:48:32;-2.70;99.90
20985;DHT22;10651;47.552;7.606;2022-12-18T06:51:03;-2.60;99.90
20985;DHT22;10651;47.552;7.606;2022-12-18T06:53:35;-2.60;99.90
20985;DHT22;10651;47.552;7.606;2022-12-18T06:56:03;-2.80;99.90
20985;DHT22;10651;47.552;7.606;2022-12-18T06:58:29;-2.80;99.90
20985;DHT22;10651;47.552;7.606;2022-12-18T07:01:02;-2.80;99.90
20985;DHT22;10651;47.552;7.606;2022-12-18T07:03:28;-2.80;99.90
20985;DHT22;10651;47.552;7.606;2022-12-18T07:05:56;-2.70;99.90
20985;DHT22;10651;47.552;7.606;2022-12-18T07:08:22;-2.60;99.90
20985;DHT22;10651;47.552;7.606;2022-12-18T07:10:47;-2.80;99.90
20985;DHT22;10651;47.552;7.606;2022-12-18T07:13:15;-2.80;99.90
20985;DHT22;10651;47.552;7.606;2022-12-18T07:15:44;-2.80;99.90
20985;DHT22;10651;47.552;7.606;2022-12-18T07:18:20;-2.70;99.90
20985;DHT22;10651;47.552;7.606;2022-12-18T07:20:46;-2.70;99.90
20985;DHT22;10651;47.552;7.606;2022-12-18T07:23:12;-2.80;99.90
20985;DHT22;10651;47.552;7.606;2022-12-18T07:25:37;-2.80;99.90
20985;DHT22;10651;47.552;7.606;2022-12-18T07:28:09;-2.80;99.90
20985;DHT22;10651;47.552;7.606;2022-12-18T07:30:41;-2.80;99.90
20985;DHT22;10651;47.552;7.606;2022-12-18T07:33:25;-2.70;99.90
20985;DHT22;10651;47.552;7.606;2022-12-18T07:35:51;-2.80;99.90
20985;DHT22;10651;47.552;7.606;2022-12-18T07:38:17;-2.80;99.90
20985;DHT22;10651;47.552;7.606;2022-12-18T07:40:42;-2.80;99.90
20985;DHT22;10651;47.552;7.606;2022-12-18T07:43:08;-2.90;99.90
20985;DHT22;10651;47.552;7.606;2022-12-18T07:45:34;-2.80;99.90
20985;DHT22;10651;47.552;7.606;2022-12-18T07:47:59;-2.90;99.90
20985;DHT22;10651;47.552;7.606;2022-12-18T07:50:25;-2.90;99.90
20985;DHT22;10651;47.552;7.606;2022-12-18T07:52:51;-2.80;99.90
20985;DHT22;10651;47.552;7.606;2022-12-18T07:55:16;-2.70;99.90
20985;DHT22;10651;47.552;7.606;2022-12-18T07:57:42;-2.60;99.90
20985;DHT22;10651;47.552;7.606;2022-12-18T08:00:08;-2.50;99.90
20985;DHT22;10651;47.552;7.606;2022-12-18T08:02:34;-2.40;99.90
20985;DHT22;10651;47.552;7.606;2022-12-18T08:04:59;-2.30;99.90
20985;DHT22;10651;47.552;7.606;2022-12-18T08:07:25;-2.30;99.90
20985;DHT22;10651;47.552;7.606;2022-12-18T08:09:53;-2.10;99.90
20985;DHT22;10651;47.552;7.606;2022-12-18T08:12:19;-2.10;99.90
20985;DHT22;10651;47.552;7.606;2022-12-18T08:14:47;-1.90;99.90
20985;DHT22;10651;47.552;7.606;2022-12-18T08:17:13;-1.80;99.90
20985;DHT22;10651;47.552;7.606;2022-12-18T08:19:39;-1.70;99.90
20985;DHT22;10651;47.552;7.606;2022-12-18T08:22:05;-1.70;99.90
20985;DHT22;10651;47.552;7.606;2022-12-18T08:24:55;-1.60;99.90
20985;DHT22;10651;47.552;7.606;2022-12-18T08:27:31;-1.60;99.90
20985;DHT22;10651;47.552;7.606;2022-12-18T08:31:00;-1.60;99.90
20985;DHT22;10651;47.552;7.606;2022-12-18T08:41:08;-1.30;99.90
20985;DHT22;10651;47.552;7.606;2022-12-18T08:43:58;-1.30;99.90
20985;DHT22;10651;47.552;7.606;2022-12-18T08:54:05;-0.40;99.90
20985;DHT22;10651;47.552;7.606;2022-12-18T09:03:17;0.60;99.90
20985;DHT22;10651;47.552;7.606;2022-12-18T09:05:43;0.90;99.90
20985;DHT22;10651;47.552;7.606;2022-12-18T09:08:11;1.00;99.90
20985;DHT22;10651;47.552;7.606;2022-12-18T09:10:46;1.20;99.90
20985;DHT22;10651;47.552;7.606;2022-12-18T09:13:40;1.50;99.90
20985;DHT22;10651;47.552;7.606;2022-12-18T09:16:11;2.10;99.90
20985;DHT22;10651;47.552;7.606;2022-12-18T09:18:39;2.80;99.90
20985;DHT22;10651;47.552;7.606;2022-12-18T09:21:14;4.30;99.90
20985;DHT22;10651;47.552;7.606;2022-12-18T09:23:53;5.80;99.90
20985;DHT22;10651;47.552;7.606;2022-12-18T09:29:38;8.10;99.90
20985;DHT22;10651;47.552;7.606;2022-12-18T09:32:04;8.60;99.90
20985;DHT22;10651;47.552;7.606;2022-12-18T09:34:30;9.00;99.90
20985;DHT22;10651;47.552;7.606;2022-12-18T09:37:22;9.40;99.90
20985;DHT22;10651;47.552;7.606;2022-12-18T09:39:47;9.90;99.90
20985;DHT22;10651;47.552;7.606;2022-12-18T09:42:20;10.70;99.90
20985;DHT22;10651;47.552;7.606;2022-12-18T09:45:08;10.90;99.90
20985;DHT22;10651;47.552;7.606;2022-12-18T09:47:49;11.60;99.90
20985;DHT22;10651;47.552;7.606;2022-12-18T09:50:34;11.40;99.90
20985;DHT22;10651;47.552;7.606;2022-12-18T09:53:06;11.60;99.90
20985;DHT22;10651;47.552;7.606;2022-12-18T09:55:36;12.10;99.90
20985;DHT22;10651;47.552;7.606;2022-12-18T09:58:30;11.50;99.90
20985;DHT22;10651;47.552;7.606;2022-12-18T10:00:57;11.60;99.90
20985;DHT22;10651;47.552;7.606;2022-12-18T10:03:26;12.80;99.90
20985;DHT22;10651;47.552;7.606;2022-12-18T10:06:06;13.20;99.90
20985;DHT22;10651;47.552;7.606;2022-12-18T10:08:54;13.50;99.90
20985;DHT22;10651;47.552;7.606;2022-12-18T10:11:43;14.00;99.90
20985;DHT22;10651;47.552;7.606;2022-12-18T10:20:49;14.00;99.90
20985;DHT22;10651;47.552;7.606;2022-12-18T10:23:22;14.50;99.90
20985;DHT22;10651;47.552;7.606;2022-12-18T10:26:04;15.30;99.90
20985;DHT22;10651;47.552;7.606;2022-12-18T10:28:33;15.30;99.60
20985;DHT22;10651;47.552;7.606;2022-12-18T10:31:00;15.50;98.50
20985;DHT22;10651;47.552;7.606;2022-12-18T10:33:30;14.80;99.40
20985;DHT22;10651;47.552;7.606;2022-12-18T10:35:57;14.60;98.80
20985;DHT22;10651;47.552;7.606;2022-12-18T10:38:28;14.40;98.40
20985;DHT22;10651;47.552;7.606;2022-12-18T10:43:25;15.20;96.90
20985;DHT22;10651;47.552;7.606;2022-12-18T10:51:30;16.50;94.30
20985;DHT22;10651;47.552;7.606;2022-12-18T10:54:04;16.40;94.60
20985;DHT22;10651;47.552;7.606;2022-12-18T10:56:46;14.90;95.00
20985;DHT22;10651;47.552;7.606;2022-12-18T10:59:17;14.50;95.50
20985;DHT22;10651;47.552;7.606;2022-12-18T11:01:55;14.50;96.20
20985;DHT22;10651;47.552;7.606;2022-12-18T11:04:30;14.80;95.60
20985;DHT22;10651;47.552;7.606;2022-12-18T11:07:00;14.30;95.70
20985;DHT22;10651;47.552;7.606;2022-12-18T11:09:27;13.50;99.50
20985;DHT22;10651;47.552;7.606;2022-12-18T11:11:55;13.20;97.30
20985;DHT22;10651;47.552;7.606;2022-12-18T11:14:49;12.80;97.60
20985;DHT22;10651;47.552;7.606;2022-12-18T11:17:32;12.10;98.30
20985;DHT22;10651;47.552;7.606;2022-12-18T11:20:04;11.90;98.90
20985;DHT22;10651;47.552;7.606;2022-12-18T11:22:32;11.60;99.90
20985;DHT22;10651;47.552;7.606;2022-12-18T11:25:02;11.30;99.90
20985;DHT22;10651;47.552;7.606;2022-12-18T11:27:28;10.70;99.90
20985;DHT22;10651;47.552;7.606;2022-12-18T11:30:08;10.60;99.90
20985;DHT22;10651;47.552;7.606;2022-12-18T11:32:43;10.80;99.90
20985;DHT22;10651;47.552;7.606;2022-12-18T11:37:44;11.90;99.90
20985;DHT22;10651;47.552;7.606;2022-12-18T11:40:19;12.30;99.90
20985;DHT22;10651;47.552;7.606;2022-12-18T11:42:56;12.50;99.90
20985;DHT22;10651;47.552;7.606;2022-12-18T11:45:29;11.70;99.90
20985;DHT22;10651;47.552;7.606;2022-12-18T11:50:53;12.70;99.90
20985;DHT22;10651;47.552;7.606;2022-12-18T11:53:20;12.50;99.90
20985;DHT22;10651;47.552;7.606;2022-12-18T12:01:16;11.90;99.90
20985;DHT22;10651;47.552;7.606;2022-12-18T12:23:21;8.30;99.90
20985;DHT22;10651;47.552;7.606;2022-12-18T12:25:46;8.00;99.90
20985;DHT22;10651;47.552;7.606;2022-12-18T12:29:22;7.90;99.90
20985;DHT22;10651;47.552;7.606;2022-12-18T12:39:19;7.60;99.90
20985;DHT22;10651;47.552;7.606;2022-12-18T12:41:47;7.30;99.90
20985;DHT22;10651;47.552;7.606;2022-12-18T12:44:41;7.40;99.90
20985;DHT22;10651;47.552;7.606;2022-12-18T12:47:18;7.20;99.90
20985;DHT22;10651;47.552;7.606;2022-12-18T12:49:46;7.20;99.90
20985;DHT22;10651;47.552;7.606;2022-12-18T12:52:35;7.10;99.90
20985;DHT22;10651;47.552;7.606;2022-12-18T12:55:05;6.80;99.90
20985;DHT22;10651;47.552;7.606;2022-12-18T12:57:40;6.80;99.90
20985;DHT22;10651;47.552;7.606;2022-12-18T13:00:15;7.00;99.90
20985;DHT22;10651;47.552;7.606;2022-12-18T13:05:58;6.80;99.90
20985;DHT22;10651;47.552;7.606;2022-12-18T13:08:28;6.90;99.90
20985;DHT22;10651;47.552;7.606;2022-12-18T13:10:55;6.80;99.90
20985;DHT22;10651;47.552;7.606;2022-12-18T13:14:00;6.70;99.90
20985;DHT22;10651;47.552;7.606;2022-12-18T13:16:27;6.30;99.90
20985;DHT22;10651;47.552;7.606;2022-12-18T13:18:57;6.40;99.90
20985;DHT22;10651;47.552;7.606;2022-12-18T13:21:32;6.60;99.90
20985;DHT22;10651;47.552;7.606;2022-12-18T13:24:21;6.30;99.90
20985;DHT22;10651;47.552;7.606;2022-12-18T13:26:48;6.20;99.90
20985;DHT22;10651;47.552;7.606;2022-12-18T13:29:41;6.00;99.90
20985;DHT22;10651;47.552;7.606;2022-12-18T13:32:23;5.90;99.90
20985;DHT22;10651;47.552;7.606;2022-12-18T13:35:07;5.70;99.90
20985;DHT22;10651;47.552;7.606;2022-12-18T13:37:51;5.50;99.90
20985;DHT22;10651;47.552;7.606;2022-12-18T13:48:33;5.20;99.90
20985;DHT22;10651;47.552;7.606;2022-12-18T13:51:09;4.90;99.90
20985;DHT22;10651;47.552;7.606;2022-12-18T13:53:57;4.90;99.90
20985;DHT22;10651;47.552;7.606;2022-12-18T13:56:30;5.00;99.90
20985;DHT22;10651;47.552;7.606;2022-12-18T13:59:21;5.10;99.90
20985;DHT22;10651;47.552;7.606;2022-12-18T14:01:59;5.10;99.90
20985;DHT22;10651;47.552;7.606;2022-12-18T14:04:31;5.10;99.90
20985;DHT22;10651;47.552;7.606;2022-12-18T14:07:03;4.90;99.90
20985;DHT22;10651;47.552;7.606;2022-12-18T14:09:34;4.80;99.90
20985;DHT22;10651;47.552;7.606;2022-12-18T14:12:00;4.70;99.90
20985;DHT22;10651;47.552;7.606;2022-12-18T14:14:49;4.80;99.90
20985;DHT22;10651;47.552;7.606;2022-12-18T14:17:16;4.90;99.90
20985;DHT22;10651;47.552;7.606;2022-12-18T14:19:45;4.70;99.90
20985;DHT22;10651;47.552;7.606;2022-12-18T14:22:18;4.60;99.90
20985;DHT22;10651;47.552;7.606;2022-12-18T14:24:45;4.70;99.90
20985;DHT22;10651;47.552;7.606;2022-12-18T14:27:25;4.60;99.90
20985;DHT22;10651;47.552;7.606;2022-12-18T14:29:51;4.40;99.90
20985;DHT22;10651;47.552;7.606;2022-12-18T14:32:18;4.30;99.90
20985;DHT22;10651;47.552;7.606;2022-12-18T14:34:49;4.30;99.90
20985;DHT22;10651;47.552;7.606;2022-12-18T14:37:19;4.40;99.90
20985;DHT22;10651;47.552;7.606;2022-12-18T14:40:12;4.50;99.90
20985;DHT22;10651;47.552;7.606;2022-12-18T14:42:38;4.40;99.90
20985;DHT22;10651;47.552;7.606;2022-12-18T14:45:36;4.30;99.90
20985;DHT22;10651;47.552;7.606;2022-12-18T14:48:06;4.10;99.90
20985;DHT22;10651;47.552;7.606;2022-12-18T14:50:33;4.00;99.90
20985;DHT22;10651;47.552;7.606;2022-12-18T14:52:58;4.00;99.90
20985;DHT22;10651;47.552;7.606;2022-12-18T14:55:24;4.00;99.90
20985;DHT22;10651;47.552;7.606;2022-12-18T14:57:52;3.80;99.90
20985;DHT22;10651;47.552;7.606;2022-12-18T15:00:22;3.80;99.90
20985;DHT22;10651;47.552;7.606;2022-12-18T15:02:55;3.70;99.90
20985;DHT22;10651;47.552;7.606;2022-12-18T15:05:29;3.60;99.90
20985;DHT22;10651;47.552;7.606;2022-12-18T15:07:57;3.40;99.90
20985;DHT22;10651;47.552;7.606;2022-12-18T15:10:30;3.40;99.90
20985;DHT22;10651;47.552;7.606;2022-12-18T15:20:57;3.30;99.90
20985;DHT22;10651;47.552;7.606;2022-12-18T15:26:10;3.20;99.90
20985;DHT22;10651;47.552;7.606;2022-12-18T15:28:51;3.20;99.90
20985;DHT22;10651;47.552;7.606;2022-12-18T15:36:22;3.00;99.90
20985;DHT22;10651;47.552;7.606;2022-12-18T15:38:52;3.00;99.90
20985;DHT22;10651;47.552;7.606;2022-12-18T15:41:20;3.00;99.90
20985;DHT22;10651;47.552;7.606;2022-12-18T15:43:48;2.90;99.90
20985;DHT22;10651;47.552;7.606;2022-12-18T15:46:17;2.90;99.90
20985;DHT22;10651;47.552;7.606;2022-12-18T15:48:45;2.90;99.90
20985;DHT22;10651;47.552;7.606;2022-12-18T15:51:16;2.90;99.90
20985;DHT22;10651;47.552;7.606;2022-12-18T15:53:43;2.70;99.90
20985;DHT22;10651;47.552;7.606;2022-12-18T15:56:11;2.60;99.90
20985;DHT22;10651;47.552;7.606;2022-12-18T15:58:56;2.60;99.90
20985;DHT22;10651;47.552;7.606;2022-12-18T16:01:27;2.60;99.90
20985;DHT22;10651;47.552;7.606;2022-12-18T16:03:53;2.70;99.90
20985;DHT22;10651;47.552;7.606;2022-12-18T16:06:20;2.60;99.90
20985;DHT22;10651;47.552;7.606;2022-12-18T16:08:46;2.60;99.90
20985;DHT22;10651;47.552;7.606;2022-12-18T16:11:27;2.70;99.90
20985;DHT22;10651;47.552;7.606;2022-12-18T16:16:42;2.60;99.90
20985;DHT22;10651;47.552;7.606;2022-12-18T16:19:08;2.60;99.90
20985;DHT22;10651;47.552;7.606;2022-12-18T16:21:34;2.60;99.90
20985;DHT22;10651;47.552;7.606;2022-12-18T16:24:00;2.50;99.90
20985;DHT22;10651;47.552;7.606;2022-12-18T16:26:26;2.50;99.90
20985;DHT22;10651;47.552;7.606;2022-12-18T16:28:52;2.50;99.90
20985;DHT22;10651;47.552;7.606;2022-12-18T16:31:19;2.60;99.90
20985;DHT22;10651;47.552;7.606;2022-12-18T16:33:45;2.50;99.90
20985;DHT22;10651;47.552;7.606;2022-12-18T16:36:10;2.50;99.90
20985;DHT22;10651;47.552;7.606;2022-12-18T16:38:36;2.50;99.90
20985;DHT22;10651;47.552;7.606;2022-12-18T16:41:19;2.50;99.90
20985;DHT22;10651;47.552;7.606;2022-12-18T16:44:10;2.50;99.90
20985;DHT22;10651;47.552;7.606;2022-12-18T16:46:55;2.60;99.90
20985;DHT22;10651;47.552;7.606;2022-12-18T16:49:50;2.70;99.90
20985;DHT22;10651;47.552;7.606;2022-12-18T16:52:18;2.60;99.90
20985;DHT22;10651;47.552;7.606;2022-12-18T16:54:44;2.60;99.90
20985;DHT22;10651;47.552;7.606;2022-12-18T16:57:17;2.50;99.90
20985;DHT22;10651;47.552;7.606;2022-12-18T16:59:59;2.70;99.90
20985;DHT22;10651;47.552;7.606;2022-12-18T17:02:36;2.60;99.90
20985;DHT22;10651;47.552;7.606;2022-12-18T17:05:43;2.60;99.90
20985;DHT22;10651;47.552;7.606;2022-12-18T17:08:35;2.50;99.90
20985;DHT22;10651;47.552;7.606;2022-12-18T17:11:06;2.60;99.90
20985;DHT22;10651;47.552;7.606;2022-12-18T17:13:32;2.60;99.90
20985;DHT22;10651;47.552;7.606;2022-12-18T17:16:02;2.50;99.90
20985;DHT22;10651;47.552;7.606;2022-12-18T17:18:29;2.50;99.90
20985;DHT22;10651;47.552;7.606;2022-12-18T17:21:02;2.40;99.90
20985;DHT22;10651;47.552;7.606;2022-12-18T17:23:29;2.40;99.90
20985;DHT22;10651;47.552;7.606;2022-12-18T17:25:56;2.40;99.90
20985;DHT22;10651;47.552;7.606;2022-12-18T17:28:23;2.40;99.90
20985;DHT22;10651;47.552;7.606;2022-12-18T17:30:48;2.30;99.90
20985;DHT22;10651;47.552;7.606;2022-12-18T17:33:14;2.10;99.90
20985;DHT22;10651;47.552;7.606;2022-12-18T17:35:40;2.20;99.90
20985;DHT22;10651;47.552;7.606;2022-12-18T17:38:06;2.20;99.90
20985;DHT22;10651;47.552;7.606;2022-12-18T17:40:32;2.30;99.90
20985;DHT22;10651;47.552;7.606;2022-12-18T17:42:57;2.30;99.90
20985;DHT22;10651;47.552;7.606;2022-12-18T17:45:24;2.30;99.90
20985;DHT22;10651;47.552;7.606;2022-12-18T17:47:50;2.40;99.90
20985;DHT22;10651;47.552;7.606;2022-12-18T17:50:16;2.20;99.90
20985;DHT22;10651;47.552;7.606;2022-12-18T17:52:41;2.20;99.90
20985;DHT22;10651;47.552;7.606;2022-12-18T17:55:08;2.20;99.90
20985;DHT22;10651;47.552;7.606;2022-12-18T17:57:34;2.30;99.90
20985;DHT22;10651;47.552;7.606;2022-12-18T18:00:02;2.30;99.90
20985;DHT22;10651;47.552;7.606;2022-12-18T18:02:27;2.20;99.90
20985;DHT22;10651;47.552;7.606;2022-12-18T18:04:53;2.20;99.90
20985;DHT22;10651;47.552;7.606;2022-12-18T18:07:19;2.20;99.90
20985;DHT22;10651;47.552;7.606;2022-12-18T18:09:45;2.20;99.90
20985;DHT22;10651;47.552;7.606;2022-12-18T18:12:11;2.20;99.90
20985;DHT22;10651;47.552;7.606;2022-12-18T18:14:55;2.30;99.90
20985;DHT22;10651;47.552;7.606;2022-12-18T18:17:21;2.20;99.90
20985;DHT22;10651;47.552;7.606;2022-12-18T18:19:46;2.20;99.90
20985;DHT22;10651;47.552;7.606;2022-12-18T18:22:12;2.20;99.90
20985;DHT22;10651;47.552;7.606;2022-12-18T18:24:38;2.20;99.90
20985;DHT22;10651;47.552;7.606;2022-12-18T18:27:03;2.20;99.90
20985;DHT22;10651;47.552;7.606;2022-12-18T18:29:29;2.20;99.90
20985;DHT22;10651;47.552;7.606;2022-12-18T18:31:55;2.10;99.90
20985;DHT22;10651;47.552;7.606;2022-12-18T18:34:54;2.20;99.90
20985;DHT22;10651;47.552;7.606;2022-12-18T18:37:20;2.20;99.90
20985;DHT22;10651;47.552;7.606;2022-12-18T18:39:46;2.30;99.90
20985;DHT22;10651;47.552;7.606;2022-12-18T18:42:11;2.30;99.90
20985;DHT22;10651;47.552;7.606;2022-12-18T18:44:37;2.30;99.90
20985;DHT22;10651;47.552;7.606;2022-12-18T18:47:03;2.30;99.90
20985;DHT22;10651;47.552;7.606;2022-12-18T18:49:29;2.30;99.90
20985;DHT22;10651;47.552;7.606;2022-12-18T18:51:57;2.20;99.90
20985;DHT22;10651;47.552;7.606;2022-12-18T18:54:24;2.10;99.90
20985;DHT22;10651;47.552;7.606;2022-12-18T18:56:50;2.20;99.90
20985;DHT22;10651;47.552;7.606;2022-12-18T18:59:16;2.20;99.90
20985;DHT22;10651;47.552;7.606;2022-12-18T19:01:42;2.20;99.90
20985;DHT22;10651;47.552;7.606;2022-12-18T19:04:08;2.20;99.90
20985;DHT22;10651;47.552;7.606;2022-12-18T19:06:34;2.30;99.90
20985;DHT22;10651;47.552;7.606;2022-12-18T19:09:01;2.20;99.90
20985;DHT22;10651;47.552;7.606;2022-12-18T19:11:27;2.00;99.90
20985;DHT22;10651;47.552;7.606;2022-12-18T19:14:13;2.10;99.90
20985;DHT22;10651;47.552;7.606;2022-12-18T19:16:40;2.10;99.90
20985;DHT22;10651;47.552;7.606;2022-12-18T19:19:06;2.20;99.90
20985;DHT22;10651;47.552;7.606;2022-12-18T19:21:33;2.10;99.90
20985;DHT22;10651;47.552;7.606;2022-12-18T19:23:59;2.10;99.90
20985;DHT22;10651;47.552;7.606;2022-12-18T19:26:26;2.10;99.90
20985;DHT22;10651;47.552;7.606;2022-12-18T19:28:52;2.00;99.90
20985;DHT22;10651;47.552;7.606;2022-12-18T19:31:18;2.10;99.90
20985;DHT22;10651;47.552;7.606;2022-12-18T19:33:45;2.10;99.90
20985;DHT22;10651;47.552;7.606;2022-12-18T19:38:38;2.50;99.90
20985;DHT22;10651;47.552;7.606;2022-12-18T19:41:05;2.30;99.90
20985;DHT22;10651;47.552;7.606;2022-12-18T19:43:30;2.20;99.90
20985;DHT22;10651;47.552;7.606;2022-12-18T19:45:56;2.10;99.90
20985;DHT22;10651;47.552;7.606;2022-12-18T19:48:22;2.10;99.90
20985;DHT22;10651;47.552;7.606;2022-12-18T19:50:48;2.10;99.90
20985;DHT22;10651;47.552;7.606;2022-12-18T19:53:13;2.00;99.90
20985;DHT22;10651;47.552;7.606;2022-12-18T19:55:40;2.10;99.90
20985;DHT22;10651;47.552;7.606;2022-12-18T19:58:06;2.10;99.90
20985;DHT22;10651;47.552;7.606;2022-12-18T20:00:33;2.10;99.90
20985;DHT22;10651;47.552;7.606;2022-12-18T20:02:59;2.10;99.90
20985;DHT22;10651;47.552;7.606;2022-12-18T20:05:25;2.10;99.90
20985;DHT22;10651;47.552;7.606;2022-12-18T20:07:51;2.10;99.90
20985;DHT22;10651;47.552;7.606;2022-12-18T20:10:17;2.20;99.90
20985;DHT22;10651;47.552;7.606;2022-12-18T20:12:43;2.10;99.90
20985;DHT22;10651;47.552;7.606;2022-12-18T20:15:09;2.10;99.90
20985;DHT22;10651;47.552;7.606;2022-12-18T20:17:38;2.00;99.90
20985;DHT22;10651;47.552;7.606;2022-12-18T20:20:04;2.00;99.90
20985;DHT22;10651;47.552;7.606;2022-12-18T20:22:30;2.00;99.90
20985;DHT22;10651;47.552;7.606;2022-12-18T20:24:56;2.00;99.90
20985;DHT22;10651;47.552;7.606;2022-12-18T20:27:21;2.00;99.90
20985;DHT22;10651;47.552;7.606;2022-12-18T20:29:47;2.10;99.90
20985;DHT22;10651;47.552;7.606;2022-12-18T20:32:13;2.10;99.90
20985;DHT22;10651;47.552;7.606;2022-12-18T20:34:39;2.00;99.90
20985;DHT22;10651;47.552;7.606;2022-12-18T20:37:05;2.00;99.90
20985;DHT22;10651;47.552;7.606;2022-12-18T20:39:31;2.10;99.90
20985;DHT22;10651;47.552;7.606;2022-12-18T20:41:57;2.10;99.90
20985;DHT22;10651;47.552;7.606;2022-12-18T20:44:22;2.10;99.90
20985;DHT22;10651;47.552;7.606;2022-12-18T20:46:53;2.10;99.90
20985;DHT22;10651;47.552;7.606;2022-12-18T20:49:19;2.20;99.90
20985;DHT22;10651;47.552;7.606;2022-12-18T20:51:47;2.10;99.90
20985;DHT22;10651;47.552;7.606;2022-12-18T20:54:13;2.10;99.90
20985;DHT22;10651;47.552;7.606;2022-12-18T20:56:40;2.20;99.90
20985;DHT22;10651;47.552;7.606;2022-12-18T20:59:05;2.20;99.90
20985;DHT22;10651;47.552;7.606;2022-12-18T21:01:31;2.10;99.90
20985;DHT22;10651;47.552;7.606;2022-12-18T21:03:57;2.10;99.90
20985;DHT22;10651;47.552;7.606;2022-12-18T21:06:24;2.10;99.90
20985;DHT22;10651;47.552;7.606;2022-12-18T21:08:49;2.10;99.90
20985;DHT22;10651;47.552;7.606;2022-12-18T21:14:00;2.10;99.90
20985;DHT22;10651;47.552;7.606;2022-12-18T21:16:26;2.20;99.90
20985;DHT22;10651;47.552;7.606;2022-12-18T21:18:52;2.10;99.90
20985;DHT22;10651;47.552;7.606;2022-12-18T21:21:18;2.20;99.90
20985;DHT22;10651;47.552;7.606;2022-12-18T21:23:44;2.20;99.90
20985;DHT22;10651;47.552;7.606;2022-12-18T21:26:24;2.20;99.90
20985;DHT22;10651;47.552;7.606;2022-12-18T21:31:22;2.10;99.90
20985;DHT22;10651;47.552;7.606;2022-12-18T21:33:49;2.10;99.90
20985;DHT22;10651;47.552;7.606;2022-12-18T21:36:15;2.10;99.90
20985;DHT22;10651;47.552;7.606;2022-12-18T21:38:40;2.10;99.90
20985;DHT22;10651;47.552;7.606;2022-12-18T21:41:07;2.20;99.90
20985;DHT22;10651;47.552;7.606;2022-12-18T21:43:36;2.20;99.90
20985;DHT22;10651;47.552;7.606;2022-12-18T21:46:20;2.20;99.90
20985;DHT22;10651;47.552;7.606;2022-12-18T21:48:46;2.10;99.90
20985;DHT22;10651;47.552;7.606;2022-12-18T21:51:12;2.10;99.90
20985;DHT22;10651;47.552;7.606;2022-12-18T21:53:38;2.10;99.90
20985;DHT22;10651;47.552;7.606;2022-12-18T21:56:03;2.10;99.90
20985;DHT22;10651;47.552;7.606;2022-12-18T21:58:30;2.10;99.90
20985;DHT22;10651;47.552;7.606;2022-12-18T22:00:55;2.00;99.90
20985;DHT22;10651;47.552;7.606;2022-12-18T22:03:21;2.00;99.90
20985;DHT22;10651;47.552;7.606;2022-12-18T22:05:47;2.10;99.90
20985;DHT22;10651;47.552;7.606;2022-12-18T22:08:12;2.10;99.90
20985;DHT22;10651;47.552;7.606;2022-12-18T22:10:38;2.20;99.90
20985;DHT22;10651;47.552;7.606;2022-12-18T22:13:04;2.10;99.90
20985;DHT22;10651;47.552;7.606;2022-12-18T22:15:31;2.10;99.90
20985;DHT22;10651;47.552;7.606;2022-12-18T22:17:57;2.10;99.90
20985;DHT22;10651;47.552;7.606;2022-12-18T22:20:22;2.20;99.90
20985;DHT22;10651;47.552;7.606;2022-12-18T22:22:48;2.10;99.90
20985;DHT22;10651;47.552;7.606;2022-12-18T22:25:16;2.10;99.90
20985;DHT22;10651;47.552;7.606;2022-12-18T22:27:43;2.20;99.90
20985;DHT22;10651;47.552;7.606;2022-12-18T22:30:28;2.10;99.90
20985;DHT22;10651;47.552;7.606;2022-12-18T22:32:54;2.20;99.90
20985;DHT22;10651;47.552;7.606;2022-12-18T22:35:20;2.30;99.90
20985;DHT22;10651;47.552;7.606;2022-12-18T22:37:45;2.30;99.90
20985;DHT22;10651;47.552;7.606;2022-12-18T22:40:18;2.30;99.90
20985;DHT22;10651;47.552;7.606;2022-12-18T22:42:44;2.30;99.90
20985;DHT22;10651;47.552;7.606;2022-12-18T22:45:10;2.30;99.90
20985;DHT22;10651;47.552;7.606;2022-12-18T22:47:35;2.30;99.90
20985;DHT22;10651;47.552;7.606;2022-12-18T22:50:01;2.30;99.90
20985;DHT22;10651;47.552;7.606;2022-12-18T22:52:27;2.40;99.90
20985;DHT22;10651;47.552;7.606;2022-12-18T22:54:53;2.40;99.90
20985;DHT22;10651;47.552;7.606;2022-12-18T22:57:18;2.30;99.90
20985;DHT22;10651;47.552;7.606;2022-12-18T22:59:44;2.30;99.90
20985;DHT22;10651;47.552;7.606;2022-12-18T23:02:10;2.30;99.90
20985;DHT22;10651;47.552;7.606;2022-12-18T23:04:35;2.30;99.90
20985;DHT22;10651;47.552;7.606;2022-12-18T23:07:01;2.40;99.90
20985;DHT22;10651;47.552;7.606;2022-12-18T23:09:27;2.40;99.90
